Time;durP1;ratioP1;P1;durP2;ratioP2;P2;SDS_P1;SDS_P2;PMS_P1;PMS_P2;Temp;Humidity;BMP_temperature;BMP_pressure;BME280_temperature;BME280_humidity;BME280_pressure;Samples;Min_cycle;Max_cycle;Signal;HPM_P1;HPM_P2
2022/06/24 00:00:10;;;;;;;5.32;2.78;;;22.20;99.90;;;;;;5040229;28;20464;-58
2022/06/24 00:02:37;;;;;;;6.72;3.53;;;22.10;99.90;;;;;;5040551;28;20085;-61
2022/06/24 00:05:07;;;;;;;7.13;2.63;;;22.00;99.90;;;;;;5040925;28;20052;-60
2022/06/24 00:07:52;;;;;;;7.40;2.97;;;22.00;99.90;;;;;;5039585;28;20057;-60
2022/06/24 00:10:23;;;;;;;6.38;2.78;;;22.00;99.90;;;;;;5041480;28;20321;-59
2022/06/24 00:12:51;;;;;;;7.53;2.85;;;21.90;99.90;;;;;;5039897;28;20045;-60
2022/06/24 00:15:31;;;;;;;5.72;2.90;;;21.90;99.90;;;;;;5040568;28;20112;-60
2022/06/24 00:18:10;;;;;;;6.47;3.05;;;21.90;99.90;;;;;;5039542;28;20576;-60
2022/06/24 00:20:42;;;;;;;5.72;3.03;;;21.90;99.90;;;;;;5039548;28;20275;-60
2022/06/24 00:23:08;;;;;;;7.03;3.05;;;21.90;99.90;;;;;;5022280;28;20135;-60
2022/06/24 00:25:37;;;;;;;5.90;2.90;;;21.90;99.90;;;;;;5018502;28;20034;-59
2022/06/24 00:28:10;;;;;;;6.07;2.78;;;21.90;99.90;;;;;;5019465;28;20103;-56
2022/06/24 00:30:41;;;;;;;7.70;2.97;;;21.90;99.90;;;;;;5020444;28;20061;-59
2022/06/24 00:33:11;;;;;;;7.38;2.90;;;21.90;99.90;;;;;;5019569;28;20049;-60
2022/06/24 00:35:43;;;;;;;6.88;3.05;;;21.90;99.90;;;;;;5021102;28;20054;-60
2022/06/24 00:38:27;;;;;;;;;;;21.80;99.90;;;;;;5019884;28;20062;-60
2022/06/24 00:41:05;;;;;;;6.13;3.15;;;21.70;99.90;;;;;;5020366;28;19987;-60
2022/06/24 00:43:43;;;;;;;5.95;2.60;;;21.80;99.90;;;;;;5020252;28;20040;-59
2022/06/24 00:46:24;;;;;;;5.32;2.90;;;21.70;99.90;;;;;;5019561;28;20108;-59
2022/06/24 00:48:52;;;;;;;6.25;2.67;;;21.70;99.90;;;;;;5020880;28;20085;-60
2022/06/24 00:51:20;;;;;;;5.82;2.58;;;21.70;99.90;;;;;;5024528;28;20106;-60
2022/06/24 00:53:51;;;;;;;5.97;2.70;;;21.80;99.90;;;;;;5039842;28;20042;-60
2022/06/24 00:56:19;;;;;;;6.57;2.60;;;21.70;99.90;;;;;;5040023;28;20041;-61
2022/06/24 00:58:59;;;;;;;6.00;2.88;;;21.70;99.90;;;;;;5038853;28;20063;-61
2022/06/24 01:01:34;;;;;;;5.80;3.03;;;21.70;99.90;;;;;;5038990;28;20733;-60
2022/06/24 01:04:01;;;;;;;7.03;3.10;;;21.70;99.90;;;;;;5038750;28;20052;-60
2022/06/24 01:06:29;;;;;;;7.80;2.70;;;21.70;99.90;;;;;;5039967;28;20049;-60
2022/06/24 01:08:55;;;;;;;5.85;2.95;;;21.60;99.90;;;;;;5039297;28;20083;-60
2022/06/24 01:11:25;;;;;;;7.13;3.05;;;21.60;99.90;;;;;;5039328;28;20051;-60
2022/06/24 01:13:52;;;;;;;6.90;3.20;;;21.50;99.90;;;;;;5038588;28;20045;-61
2022/06/24 01:16:21;;;;;;;6.95;3.05;;;21.50;99.90;;;;;;5038814;28;20076;-60
2022/06/24 01:18:53;;;;;;;6.45;3.55;;;21.40;99.90;;;;;;5039872;28;20056;-60
2022/06/24 01:21:38;;;;;;;7.85;3.40;;;21.40;99.90;;;;;;5034825;28;20041;-57
2022/06/24 01:24:11;;;;;;;6.28;3.03;;;21.30;99.90;;;;;;5018137;28;20038;-59
2022/06/24 01:26:38;;;;;;;5.95;3.00;;;21.30;99.90;;;;;;5020203;28;20283;-60
2022/06/24 01:29:04;;;;;;;7.22;3.45;;;21.30;99.90;;;;;;5018295;28;20045;-60
2022/06/24 01:31:30;;;;;;;7.35;3.42;;;21.30;99.90;;;;;;5020135;28;20473;-59
2022/06/24 01:33:56;;;;;;;7.05;3.17;;;21.20;99.90;;;;;;5018541;28;20049;-59
2022/06/24 01:36:22;;;;;;;6.53;3.10;;;21.20;99.90;;;;;;5020082;28;20042;-59
2022/06/24 01:38:48;;;;;;;7.13;3.22;;;21.20;99.90;;;;;;5018984;28;20053;-60
2022/06/24 01:41:14;;;;;;;8.35;3.30;;;21.10;99.90;;;;;;5019419;28;20038;-60
2022/06/24 01:43:40;;;;;;;8.23;3.20;;;21.10;99.90;;;;;;5017588;28;20048;-60
2022/06/24 01:46:06;;;;;;;6.03;3.22;;;21.10;99.90;;;;;;5018423;28;20102;-60
2022/06/24 01:48:32;;;;;;;8.02;3.58;;;21.00;99.90;;;;;;5020120;28;20052;-60
2022/06/24 01:50:58;;;;;;;6.80;3.28;;;21.00;99.90;;;;;;5020959;28;20042;-60
2022/06/24 01:53:24;;;;;;;6.18;3.30;;;20.90;99.90;;;;;;5039700;28;20049;-60
2022/06/24 01:55:50;;;;;;;6.90;3.35;;;21.00;99.90;;;;;;5038622;28;20106;-60
2022/06/24 01:58:15;;;;;;;8.18;3.45;;;20.90;99.90;;;;;;5038835;28;20076;-61
2022/06/24 02:00:41;;;;;;;6.57;3.67;;;20.90;99.90;;;;;;5039211;28;20048;-61
2022/06/24 02:03:08;;;;;;;7.82;3.63;;;20.90;99.90;;;;;;5038111;28;20052;-60
2022/06/24 02:05:33;;;;;;;7.18;3.67;;;20.80;99.90;;;;;;5039410;28;20553;-60
2022/06/24 02:07:59;;;;;;;7.82;3.42;;;20.70;99.90;;;;;;5036435;28;20076;-61
2022/06/24 02:13:27;;;;;;;7.60;4.43;;;20.60;99.90;;;;;;5038731;28;20076;-60
2022/06/24 02:15:58;;;;;;;6.90;3.55;;;20.60;99.90;;;;;;5038072;28;20042;-60
2022/06/24 02:18:24;;;;;;;;;;;20.50;99.90;;;;;;5040037;28;20046;-60
2022/06/24 02:20:50;;;;;;;8.30;4.10;;;20.50;99.90;;;;;;5037693;28;19932;-60
2022/06/24 02:23:18;;;;;;;8.02;4.22;;;20.50;99.90;;;;;;5019539;28;20077;-59
2022/06/24 02:25:45;;;;;;;6.57;4.25;;;20.40;99.90;;;;;;5018659;28;20074;-60
2022/06/24 02:28:11;;;;;;;7.30;4.35;;;20.40;99.90;;;;;;5018879;28;20085;-60
2022/06/24 02:30:38;;;;;;;8.02;4.13;;;20.40;99.90;;;;;;5018809;28;20065;-59
2022/06/24 02:33:08;;;;;;;7.28;4.05;;;20.40;99.90;;;;;;5018179;28;20917;-59
2022/06/24 02:35:34;;;;;;;8.00;4.47;;;20.30;99.90;;;;;;5019703;28;20045;-59
2022/06/24 02:38:00;;;;;;;9.02;4.53;;;20.30;99.90;;;;;;5017958;28;20092;-60
2022/06/24 02:43:18;;;;;;;8.27;4.72;;;20.30;99.90;;;;;;5018898;28;20080;-60
2022/06/24 02:45:52;;;;;;;7.85;4.75;;;20.30;99.90;;;;;;5018184;28;20057;-60
2022/06/24 02:48:19;;;;;;;9.85;4.15;;;20.30;99.90;;;;;;5019073;28;20049;-60
2022/06/24 02:50:50;;;;;;;8.07;4.70;;;20.30;99.90;;;;;;5017337;28;20060;-60
2022/06/24 02:53:17;;;;;;;6.85;4.07;;;20.40;99.90;;;;;;5039281;28;20041;-59
2022/06/24 02:55:45;;;;;;;9.30;4.45;;;20.40;99.90;;;;;;5040406;28;20029;-59
2022/06/24 02:58:11;;;;;;;7.63;4.55;;;20.30;99.90;;;;;;5040524;28;20037;-59
2022/06/24 03:00:39;;;;;;;7.65;4.47;;;20.40;99.90;;;;;;5042174;28;20033;-59
2022/06/24 03:03:06;;;;;;;9.63;5.10;;;20.30;99.90;;;;;;5041174;28;20045;-59
2022/06/24 03:05:32;;;;;;;7.45;4.57;;;20.30;99.90;;;;;;5042518;28;20101;-60
2022/06/24 03:07:57;;;;;;;8.35;4.75;;;20.30;99.90;;;;;;5040637;28;20098;-60
2022/06/24 03:10:23;;;;;;;8.00;5.43;;;20.30;99.90;;;;;;5041283;28;20053;-60
2022/06/24 03:12:49;;;;;;;7.45;4.35;;;20.30;99.90;;;;;;5041286;28;20052;-59
2022/06/24 03:15:15;;;;;;;7.50;4.45;;;20.30;99.90;;;;;;5040218;28;20508;-59
2022/06/24 03:17:41;;;;;;;7.25;4.72;;;20.30;99.90;;;;;;5041723;28;20105;-59
2022/06/24 03:20:08;;;;;;;8.07;4.15;;;20.30;99.90;;;;;;5039659;28;20049;-60
2022/06/24 03:22:34;;;;;;;7.32;4.53;;;20.20;99.90;;;;;;5027864;28;20042;-59
2022/06/24 03:25:00;;;;;;;8.45;5.18;;;20.20;99.90;;;;;;5020705;28;20090;-59
2022/06/24 03:27:26;;;;;;;9.98;5.30;;;20.10;99.90;;;;;;5022511;28;20057;-60
2022/06/24 03:29:52;;;;;;;10.32;5.50;;;20.10;99.90;;;;;;5020869;28;20042;-60
2022/06/24 03:32:17;;;;;;;9.32;5.47;;;20.10;99.90;;;;;;5021638;28;20061;-59
2022/06/24 03:34:43;;;;;;;9.05;5.38;;;20.10;99.90;;;;;;5021508;28;20053;-59
2022/06/24 03:37:09;;;;;;;8.20;5.10;;;20.00;99.90;;;;;;5021004;28;20048;-58
2022/06/24 03:39:36;;;;;;;7.68;4.95;;;20.00;99.90;;;;;;5020710;28;20097;-59
2022/06/24 03:42:03;;;;;;;7.65;5.00;;;20.00;99.90;;;;;;5020590;28;20573;-59
2022/06/24 03:44:29;;;;;;;9.57;5.20;;;20.10;99.90;;;;;;5021592;28;20045;-60
2022/06/24 03:46:55;;;;;;;8.20;5.03;;;20.10;99.90;;;;;;5020512;28;20037;-60
2022/06/24 03:49:20;;;;;;;8.35;4.38;;;20.10;99.90;;;;;;5021362;28;20056;-60
2022/06/24 03:51:46;;;;;;;8.68;4.70;;;20.00;99.90;;;;;;5030101;28;20041;-60
2022/06/24 03:54:12;;;;;;;8.60;5.13;;;20.10;99.90;;;;;;5040431;28;20044;-60
2022/06/24 03:56:38;;;;;;;7.00;4.80;;;20.10;99.90;;;;;;5041538;28;20128;-60
2022/06/24 03:59:04;;;;;;;7.43;4.72;;;20.10;99.90;;;;;;5039934;28;20033;-59
2022/06/24 04:01:29;;;;;;;9.32;5.75;;;20.10;99.90;;;;;;5041537;28;20042;-60
2022/06/24 04:03:55;;;;;;;7.60;5.25;;;20.10;99.90;;;;;;5039856;28;20048;-59
2022/06/24 04:06:21;;;;;;;7.00;4.72;;;20.10;99.90;;;;;;5040858;28;20049;-59
2022/06/24 04:08:46;;;;;;;8.07;4.72;;;20.20;99.90;;;;;;5039994;28;20087;-60
2022/06/24 04:11:16;;;;;;;8.75;5.25;;;20.10;99.90;;;;;;5040171;28;20049;-60
2022/06/24 04:13:43;;;;;;;7.90;4.63;;;20.20;99.90;;;;;;5039281;28;20057;-60
2022/06/24 04:16:10;;;;;;;7.65;5.00;;;20.10;99.90;;;;;;5038194;28;20052;-59
2022/06/24 04:18:35;;;;;;;7.43;4.45;;;20.20;99.90;;;;;;5041251;28;20101;-60
2022/06/24 04:21:02;;;;;;;9.90;4.85;;;20.20;99.90;;;;;;5037920;28;20037;-61
2022/06/24 04:23:28;;;;;;;7.18;4.47;;;20.20;99.90;;;;;;5021087;28;20033;-59
2022/06/24 04:25:53;;;;;;;7.57;4.80;;;20.20;99.90;;;;;;5020145;28;20512;-60
2022/06/24 04:28:20;;;;;;;8.77;5.05;;;20.20;99.90;;;;;;5018719;28;20053;-59
2022/06/24 04:30:46;;;;;;;6.82;4.43;;;20.30;99.90;;;;;;5020810;28;20571;-59
2022/06/24 04:33:11;;;;;;;8.38;4.55;;;20.30;99.90;;;;;;5019827;28;20038;-60
2022/06/24 04:35:39;;;;;;;7.80;4.45;;;20.30;99.90;;;;;;5021031;28;20577;-60
2022/06/24 04:38:05;;;;;;;9.18;4.45;;;20.30;99.90;;;;;;5019293;28;20045;-60
2022/06/24 04:40:30;;;;;;;10.82;4.65;;;20.40;99.90;;;;;;5020911;28;20042;-60
2022/06/24 04:42:56;;;;;;;8.30;4.75;;;20.40;99.90;;;;;;5019785;28;20038;-60
2022/06/24 04:45:22;;;;;;;10.32;4.95;;;20.20;99.90;;;;;;5020011;28;20061;-59
2022/06/24 04:47:47;;;;;;;9.93;5.40;;;20.40;99.90;;;;;;5020253;28;20064;-59
2022/06/24 04:50:13;;;;;;;8.25;5.30;;;20.40;99.90;;;;;;5019327;28;20042;-60
2022/06/24 04:52:39;;;;;;;8.13;5.13;;;20.60;99.90;;;;;;5037144;28;20042;-60
2022/06/24 04:55:06;;;;;;;9.15;5.15;;;20.70;99.90;;;;;;5038891;28;20049;-61
2022/06/24 04:57:33;;;;;;;8.18;4.35;;;20.80;99.90;;;;;;5040333;28;20125;-61
2022/06/24 04:59:59;;;;;;;10.60;4.38;;;20.90;99.90;;;;;;5039265;28;20052;-60
2022/06/24 05:02:24;;;;;;;8.55;4.90;;;21.00;99.90;;;;;;5038149;28;20611;-60
2022/06/24 05:04:50;;;;;;;10.40;5.07;;;21.00;99.90;;;;;;5039919;28;20175;-60
2022/06/24 05:07:16;;;;;;;7.65;4.63;;;21.10;99.90;;;;;;5038527;28;20049;-60
2022/06/24 05:09:42;;;;;;;8.05;4.72;;;21.00;99.90;;;;;;5040281;28;20080;-61
2022/06/24 05:12:09;;;;;;;7.40;4.60;;;21.00;99.90;;;;;;5038253;28;20063;-60
2022/06/24 05:14:35;;;;;;;7.90;4.50;;;20.80;99.90;;;;;;5040001;28;20049;-61
2022/06/24 05:17:01;;;;;;;8.52;4.88;;;20.90;99.90;;;;;;5038155;28;20128;-60
2022/06/24 05:19:27;;;;;;;8.32;5.00;;;20.70;99.90;;;;;;5039552;28;20049;-61
2022/06/24 05:21:53;;;;;;;10.77;6.32;;;20.70;99.90;;;;;;5030748;28;20064;-61
2022/06/24 05:24:19;;;;;;;11.60;6.75;;;20.80;99.90;;;;;;5019051;28;20044;-60
2022/06/24 05:26:45;;;;;;;10.43;6.32;;;20.80;99.90;;;;;;5020047;28;20038;-60
2022/06/24 05:29:11;;;;;;;10.15;7.32;;;20.70;99.90;;;;;;5018505;28;20575;-60
2022/06/24 05:31:38;;;;;;;12.65;7.13;;;20.90;99.90;;;;;;5020031;28;20049;-59
2022/06/24 05:34:04;;;;;;;11.07;9.10;;;20.90;99.90;;;;;;5018697;28;20474;-59
2022/06/24 05:36:30;;;;;;;12.70;9.13;;;20.70;99.90;;;;;;5019766;28;20053;-59
2022/06/24 05:38:56;;;;;;;14.73;10.65;;;20.70;99.90;;;;;;5019414;28;20050;-59
2022/06/24 05:41:22;;;;;;;14.95;10.75;;;20.60;99.90;;;;;;5018753;28;20038;-59
2022/06/24 05:43:48;;;;;;;17.42;12.00;;;20.70;99.90;;;;;;5016629;28;20049;-59
2022/06/24 05:46:14;;;;;;;17.27;12.55;;;20.70;99.90;;;;;;5013904;28;20589;-59
2022/06/24 05:48:40;;;;;;;17.95;10.68;;;20.60;99.90;;;;;;5016716;28;20050;-58
2022/06/24 05:51:10;;;;;;;18.80;7.75;;;20.70;99.90;;;;;;5018628;28;20033;-59
2022/06/24 05:56:21;;;;;;;18.25;5.53;;;20.70;99.90;;;;;;5035619;28;20770;-59
2022/06/24 05:58:47;;;;;;;18.52;6.30;;;20.80;99.90;;;;;;5034823;28;20046;-59
2022/06/24 06:01:13;;;;;;;14.68;6.43;;;20.60;99.90;;;;;;5034763;28;20095;-59
2022/06/24 06:03:40;;;;;;;14.93;6.03;;;20.60;99.90;;;;;;5034861;28;20085;-59
2022/06/24 06:06:07;;;;;;;15.20;6.55;;;20.40;99.90;;;;;;5036077;28;20072;-59
2022/06/24 06:08:36;;;;;;;18.80;6.07;;;20.50;99.90;;;;;;5034488;28;20061;-59
2022/06/24 06:11:10;;;;;;;17.10;5.90;;;20.40;99.90;;;;;;5035514;28;20106;-59
2022/06/24 06:13:36;;;;;;;15.45;5.53;;;20.50;99.90;;;;;;5035673;28;20040;-58
2022/06/24 06:16:02;;;;;;;12.90;5.40;;;20.30;99.90;;;;;;5034574;28;20037;-58
2022/06/24 06:18:27;;;;;;;12.80;5.57;;;20.40;99.90;;;;;;5034421;28;20040;-59
2022/06/24 06:20:59;;;;;;;11.98;5.40;;;20.40;99.90;;;;;;5034021;28;20131;-58
2022/06/24 06:23:25;;;;;;;11.82;5.00;;;20.40;99.90;;;;;;5016257;28;20041;-59
2022/06/24 06:25:51;;;;;;;10.52;4.88;;;20.50;99.90;;;;;;5015453;28;20046;-58
2022/06/24 06:28:16;;;;;;;13.82;4.78;;;20.50;99.90;;;;;;5014376;28;20046;-58
2022/06/24 06:30:42;;;;;;;23.35;6.35;;;20.50;99.90;;;;;;5019453;28;20150;-60
2022/06/24 06:33:07;;;;;;;13.77;5.85;;;20.50;99.90;;;;;;5018380;28;20054;-58
2022/06/24 06:35:33;;;;;;;15.93;6.75;;;20.10;99.90;;;;;;5020091;28;20049;-57
2022/06/24 06:37:59;;;;;;;16.67;6.30;;;19.70;99.90;;;;;;5018409;28;20049;-59
2022/06/24 06:40:25;;;;;;;14.98;6.97;;;19.60;99.90;;;;;;5018535;28;20083;-60
2022/06/24 06:42:55;;;;;;;13.27;6.43;;;19.70;99.90;;;;;;5018357;28;20107;-59
2022/06/24 06:45:21;;;;;;;11.30;6.68;;;19.60;99.90;;;;;;5017567;28;20042;-59
2022/06/24 06:47:47;;;;;;;16.63;7.68;;;19.90;99.90;;;;;;5019326;28;20112;-59
2022/06/24 06:50:13;;;;;;;12.50;6.32;;;19.90;99.90;;;;;;5017184;28;20163;-58
2022/06/24 06:52:40;;;;;;;14.80;7.78;;;19.90;99.90;;;;;;5036016;28;20053;-59
2022/06/24 06:55:06;;;;;;;13.40;8.68;;;20.00;99.90;;;;;;5036437;28;20103;-59
2022/06/24 06:57:32;;;;;;;19.20;10.07;;;20.20;99.90;;;;;;5039404;28;20103;-59
2022/06/24 06:59:57;;;;;;;10.90;6.75;;;20.30;99.90;;;;;;5038397;28;20707;-59
2022/06/24 07:02:23;;;;;;;15.48;7.47;;;20.20;99.90;;;;;;5038459;28;20106;-58
2022/06/24 07:04:49;;;;;;;11.65;6.57;;;20.30;99.90;;;;;;5037701;28;20041;-57
2022/06/24 07:07:15;;;;;;;11.40;6.65;;;20.10;99.90;;;;;;5037405;28;20072;-55
2022/06/24 07:09:41;;;;;;;14.07;6.85;;;20.20;99.90;;;;;;5039129;28;20132;-58
2022/06/24 07:12:07;;;;;;;10.90;5.65;;;20.30;99.90;;;;;;5036196;28;20060;-59
2022/06/24 07:14:32;;;;;;;14.23;6.63;;;20.20;99.90;;;;;;5037648;28;20061;-59
2022/06/24 07:16:58;;;;;;;13.32;7.65;;;20.00;99.90;;;;;;5036617;28;20107;-59
2022/06/24 07:19:24;;;;;;;11.82;6.97;;;20.20;99.90;;;;;;5036369;28;20045;-59
2022/06/24 07:21:49;;;;;;;12.57;7.10;;;20.10;99.90;;;;;;5027586;28;20041;-59
2022/06/24 07:24:15;;;;;;;11.60;6.82;;;20.10;99.90;;;;;;5027657;28;20611;-59
2022/06/24 07:26:41;;;;;;;12.10;5.88;;;20.10;99.90;;;;;;5027529;28;20134;-59
2022/06/24 07:29:06;;;;;;;15.32;5.80;;;19.80;99.90;;;;;;5026633;28;20105;-59
2022/06/24 07:31:32;;;;;;;13.25;5.93;;;19.60;99.90;;;;;;5032326;28;20038;-58
2022/06/24 07:33:58;;;;;;;10.35;5.25;;;19.60;99.90;;;;;;5037400;28;20409;-60
2022/06/24 07:36:24;;;;;;;11.10;5.80;;;19.40;99.90;;;;;;5038233;28;20053;-59
2022/06/24 07:38:50;;;;;;;11.15;6.28;;;19.60;99.90;;;;;;5037883;28;20076;-62
2022/06/24 07:41:16;;;;;;;11.05;5.72;;;19.50;99.90;;;;;;5037083;28;20049;-60
2022/06/24 07:43:41;;;;;;;13.32;6.47;;;19.50;99.90;;;;;;5037876;28;20072;-58
2022/06/24 07:46:08;;;;;;;14.00;6.25;;;19.40;99.90;;;;;;5036902;28;20073;-58
2022/06/24 07:48:36;;;;;;;12.15;4.68;;;19.30;99.90;;;;;;5038597;28;20056;-59
2022/06/24 07:51:14;;;;;;;13.60;5.60;;;19.50;99.90;;;;;;5036809;28;20037;-58
2022/06/24 07:53:41;;;;;;;14.73;5.88;;;19.40;99.90;;;;;;5037758;28;20049;-58
2022/06/24 07:58:51;;;;;;;15.60;6.05;;;19.40;99.90;;;;;;5026795;28;20507;-59
2022/06/24 08:01:16;;;;;;;10.35;5.72;;;19.40;99.90;;;;;;5026841;28;20061;-58
2022/06/24 08:03:43;;;;;;;12.10;5.80;;;19.30;99.90;;;;;;5023679;28;20030;-56
2022/06/24 08:06:08;;;;;;;12.93;5.60;;;19.40;99.90;;;;;;5018060;28;20064;-58
2022/06/24 08:08:34;;;;;;;12.93;5.72;;;19.40;99.90;;;;;;5016458;28;20085;-59
2022/06/24 08:11:00;;;;;;;12.77;6.10;;;19.40;99.90;;;;;;5017687;28;20054;-59
2022/06/24 08:13:25;;;;;;;10.57;5.13;;;19.20;99.90;;;;;;5017819;28;20049;-59
2022/06/24 08:15:51;;;;;;;11.63;5.18;;;19.40;99.90;;;;;;5016413;28;20118;-58
2022/06/24 08:18:19;;;;;;;13.88;5.82;;;19.30;99.90;;;;;;5018190;28;20053;-58
2022/06/24 08:20:44;;;;;;;11.98;6.15;;;19.30;99.90;;;;;;5016177;28;20045;-58
2022/06/24 08:23:10;;;;;;;12.77;6.40;;;19.20;99.90;;;;;;5037213;28;20049;-59
2022/06/24 08:25:36;;;;;;;13.32;6.80;;;19.20;99.90;;;;;;5036687;28;20407;-58
2022/06/24 08:28:02;;;;;;;11.60;6.32;;;19.20;99.90;;;;;;5036745;28;21005;-58
2022/06/24 08:30:28;;;;;;;11.65;5.45;;;19.20;99.90;;;;;;5036853;28;20053;-58
2022/06/24 08:32:54;;;;;;;11.85;5.68;;;19.20;99.90;;;;;;5036487;28;20045;-59
2022/06/24 08:35:19;;;;;;;9.82;5.55;;;19.40;99.90;;;;;;5037704;28;20049;-58
2022/06/24 08:37:45;;;;;;;8.77;5.22;;;19.30;99.90;;;;;;5035965;28;20046;-58
2022/06/24 08:40:12;;;;;;;13.20;5.38;;;19.40;99.90;;;;;;5037571;28;20056;-58
2022/06/24 08:42:38;;;;;;;11.95;6.43;;;19.30;99.90;;;;;;5035898;28;20107;-59
2022/06/24 08:45:05;;;;;;;11.93;6.00;;;19.60;99.90;;;;;;5036652;28;20052;-58
2022/06/24 08:47:31;;;;;;;16.05;6.60;;;19.60;99.90;;;;;;5036713;28;20053;-58
2022/06/24 08:49:57;;;;;;;10.80;6.30;;;19.70;99.90;;;;;;5035797;28;20049;-58
2022/06/24 08:52:22;;;;;;;10.57;5.47;;;19.70;99.90;;;;;;5036287;28;20034;-58
2022/06/24 08:54:49;;;;;;;8.55;5.35;;;19.60;99.90;;;;;;5035136;28;20029;-57
2022/06/24 08:57:15;;;;;;;11.88;6.22;;;19.50;99.90;;;;;;5036688;28;20072;-58
2022/06/24 08:59:42;;;;;;;10.38;5.25;;;19.80;99.90;;;;;;5021831;28;20053;-58
2022/06/24 09:02:13;;;;;;;13.80;7.22;;;19.80;99.90;;;;;;5017019;28;20056;-59
2022/06/24 09:04:43;;;;;;;10.85;6.20;;;19.80;99.90;;;;;;5018605;28;20041;-58
2022/06/24 09:07:26;;;;;;;11.45;7.15;;;19.70;99.90;;;;;;5017540;28;20118;-58
2022/06/24 09:10:04;;;;;;;10.48;7.55;;;19.90;99.90;;;;;;5018971;28;20054;-58
2022/06/24 09:12:59;;;;;;;14.88;7.80;;;20.10;99.90;;;;;;5018893;28;20061;-58
2022/06/24 09:15:25;;;;;;;10.63;7.03;;;20.20;99.90;;;;;;5006111;28;20050;-58
2022/06/24 09:17:51;;;;;;;10.88;7.38;;;20.00;99.90;;;;;;5019760;28;20037;-58
2022/06/24 09:20:25;;;;;;;18.02;7.63;;;20.00;99.90;;;;;;5018994;28;20050;-58
2022/06/24 09:23:05;;;;;;;13.43;7.45;;;19.90;99.90;;;;;;5036881;28;20053;-57
2022/06/24 09:25:46;;;;;;;12.48;7.63;;;19.90;99.90;;;;;;5038782;28;20069;-58
2022/06/24 09:28:22;;;;;;;14.25;7.82;;;19.80;99.90;;;;;;5038883;28;20045;-58
2022/06/24 09:30:48;;;;;;;15.40;7.70;;;19.70;99.90;;;;;;5039749;28;20045;-58
2022/06/24 09:33:18;;;;;;;12.63;6.65;;;19.80;99.90;;;;;;5038153;28;20045;-58
2022/06/24 09:35:45;;;;;;;12.75;6.93;;;19.80;99.90;;;;;;5040115;28;20053;-56
2022/06/24 09:38:11;;;;;;;15.20;7.25;;;19.50;99.90;;;;;;5038551;28;20046;-58
2022/06/24 09:40:38;;;;;;;12.15;6.78;;;19.40;99.90;;;;;;5039243;28;20053;-58
2022/06/24 09:43:06;;;;;;;13.20;7.82;;;19.50;99.90;;;;;;5037531;28;20056;-58
2022/06/24 09:45:52;;;;;;;12.10;7.70;;;19.50;99.90;;;;;;5038136;28;20059;-58
2022/06/24 09:48:37;;;;;;;14.38;9.07;;;19.50;99.90;;;;;;5037189;28;20526;-59
2022/06/24 09:51:05;;;;;;;14.38;9.02;;;19.40;99.90;;;;;;5037982;28;20047;-58
2022/06/24 09:53:33;;;;;;;13.88;8.55;;;19.50;99.90;;;;;;5037462;28;20041;-59
2022/06/24 09:55:59;;;;;;;14.20;8.35;;;19.50;99.90;;;;;;5035157;28;20053;-58
2022/06/24 09:58:25;;;;;;;14.43;7.95;;;19.70;99.90;;;;;;5027644;28;20042;-59
2022/06/24 10:00:51;;;;;;;13.32;7.95;;;19.70;99.90;;;;;;5028335;28;20052;-57
2022/06/24 10:03:18;;;;;;;14.65;7.45;;;19.70;99.90;;;;;;5029138;28;20037;-59
2022/06/24 10:05:51;;;;;;;14.43;8.80;;;19.50;99.90;;;;;;5031886;28;20117;-58
2022/06/24 10:08:17;;;;;;;14.90;8.55;;;19.50;99.90;;;;;;5032680;28;20109;-58
2022/06/24 10:10:50;;;;;;;13.32;8.73;;;19.50;99.90;;;;;;5033233;28;20046;-60
2022/06/24 10:13:25;;;;;;;15.25;8.55;;;19.50;99.90;;;;;;5032224;28;20869;-59
2022/06/24 10:15:52;;;;;;;14.27;9.00;;;19.50;99.90;;;;;;5030422;28;20041;-59
2022/06/24 10:18:20;;;;;;;15.60;9.10;;;19.50;99.90;;;;;;5030050;28;20076;-60
2022/06/24 10:20:47;;;;;;;14.75;9.60;;;19.40;99.90;;;;;;5021469;28;20080;-59
2022/06/24 10:23:34;;;;;;;12.35;8.55;;;19.40;99.90;;;;;;5042466;28;20061;-59
2022/06/24 10:26:09;;;;;;;14.55;11.50;;;19.10;99.90;;;;;;5041993;28;20104;-58
2022/06/24 10:29:15;;;;;;;15.93;9.55;;;19.30;99.90;;;;;;5041099;28;20034;-58
2022/06/24 10:31:48;;;;;;;12.77;9.52;;;19.20;99.90;;;;;;5042698;28;20041;-59
2022/06/24 10:34:25;;;;;;;16.00;9.68;;;19.00;99.90;;;;;;5040603;28;20433;-57
2022/06/24 10:36:59;;;;;;;11.90;8.68;;;19.00;99.90;;;;;;5040348;28;20054;-58
2022/06/24 10:39:28;;;;;;;11.32;8.20;;;18.70;99.90;;;;;;5041502;28;20084;-59
2022/06/24 10:42:05;;;;;;;13.65;9.20;;;18.70;99.90;;;;;;5039632;28;20460;-59
2022/06/24 10:44:31;;;;;;;14.43;9.43;;;18.60;99.90;;;;;;5041208;28;20049;-59
2022/06/24 10:47:12;;;;;;;13.90;9.07;;;18.50;99.90;;;;;;5041662;28;20440;-59
2022/06/24 10:52:41;;;;;;;11.63;8.15;;;18.30;99.90;;;;;;5042547;28;20069;-59
2022/06/24 10:55:28;;;;;;;11.43;7.45;;;18.20;99.90;;;;;;5040764;28;20098;-60
2022/06/24 10:58:16;;;;;;;12.70;7.40;;;18.10;99.90;;;;;;5041840;28;20052;-58
2022/06/24 11:00:54;;;;;;;11.57;7.40;;;18.20;99.90;;;;;;5042377;28;20053;-58
2022/06/24 11:03:23;;;;;;;10.43;6.78;;;18.20;99.90;;;;;;5040850;28;20120;-58
2022/06/24 11:05:51;;;;;;;12.63;7.20;;;18.10;99.90;;;;;;5041193;28;20065;-59
2022/06/24 11:08:21;;;;;;;8.93;6.30;;;18.10;99.90;;;;;;5040832;28;20050;-59
2022/06/24 11:10:49;;;;;;;7.87;4.40;;;17.90;99.90;;;;;;5041497;28;20064;-58
2022/06/24 11:13:15;;;;;;;8.65;5.15;;;17.90;99.90;;;;;;5041796;28;20471;-58
2022/06/24 11:15:43;;;;;;;7.72;5.07;;;17.70;99.90;;;;;;5039316;28;20052;-59
2022/06/24 11:18:13;;;;;;;10.75;5.68;;;17.70;99.90;;;;;;5041924;28;20045;-59
2022/06/24 11:20:42;;;;;;;10.90;6.43;;;17.90;99.90;;;;;;5040518;28;20408;-58
2022/06/24 11:23:09;;;;;;;8.93;4.85;;;17.90;99.90;;;;;;5023101;28;20065;-59
2022/06/24 11:25:37;;;;;;;8.15;5.07;;;17.90;99.90;;;;;;5021038;28;20030;-58
2022/06/24 11:28:03;;;;;;;8.68;4.57;;;17.70;99.90;;;;;;5021406;28;20041;-58
2022/06/24 11:30:29;;;;;;;9.65;4.88;;;17.80;99.90;;;;;;5021898;28;20433;-59
2022/06/24 11:32:57;;;;;;;10.70;5.50;;;17.80;99.90;;;;;;5020615;28;20050;-59
2022/06/24 11:35:24;;;;;;;8.10;4.60;;;17.70;99.90;;;;;;5022143;28;20092;-59
2022/06/24 11:37:50;;;;;;;8.15;4.90;;;17.80;99.90;;;;;;5020673;28;20053;-59
2022/06/24 11:40:21;;;;;;;9.23;5.55;;;17.80;99.90;;;;;;5020454;28;20056;-59
2022/06/24 11:42:47;;;;;;;8.30;4.68;;;17.90;99.90;;;;;;5020835;28;20045;-58
2022/06/24 11:45:13;;;;;;;8.70;5.05;;;17.80;99.90;;;;;;5020762;28;20172;-59
2022/06/24 11:47:39;;;;;;;8.13;4.85;;;17.80;99.90;;;;;;5021276;28;20104;-57
2022/06/24 11:50:05;;;;;;;9.35;5.60;;;17.90;99.90;;;;;;5019999;28;20049;-59
2022/06/24 11:52:45;;;;;;;11.30;5.60;;;18.00;99.90;;;;;;5035383;28;20099;-59
2022/06/24 11:55:31;;;;;;;8.73;4.97;;;18.00;99.90;;;;;;5039939;28;20053;-59
2022/06/24 11:57:58;;;;;;;8.55;4.72;;;17.90;99.90;;;;;;5040547;28;20045;-58
2022/06/24 12:00:26;;;;;;;7.20;4.65;;;17.90;99.90;;;;;;5040819;28;20486;-58
2022/06/24 12:02:55;;;;;;;6.72;4.18;;;17.80;99.90;;;;;;5039760;28;20455;-58
2022/06/24 12:05:25;;;;;;;8.55;5.30;;;18.00;99.90;;;;;;5041387;28;20053;-58
2022/06/24 12:07:51;;;;;;;7.00;4.50;;;18.00;99.90;;;;;;5039570;28;20053;-58
2022/06/24 12:10:17;;;;;;;9.15;5.47;;;18.10;99.90;;;;;;5040966;28;20095;-58
2022/06/24 12:12:55;;;;;;;9.82;5.15;;;18.20;99.90;;;;;;5039966;28;20041;-59
2022/06/24 12:15:31;;;;;;;9.90;6.60;;;18.20;99.90;;;;;;5039901;28;20080;-59
2022/06/24 12:17:57;;;;;;;8.73;5.10;;;18.30;99.90;;;;;;5040930;28;20504;-58
2022/06/24 12:20:28;;;;;;;9.32;5.60;;;18.50;99.90;;;;;;5039444;28;20048;-59
2022/06/24 12:23:17;;;;;;;7.47;4.70;;;18.40;99.90;;;;;;5023800;28;20132;-58
2022/06/24 12:25:47;;;;;;;7.72;5.07;;;18.50;99.90;;;;;;5020302;28;20049;-58
2022/06/24 12:28:24;;;;;;;10.13;5.88;;;18.70;99.90;;;;;;5019883;28;20653;-58
2022/06/24 12:31:07;;;;;;;9.48;6.25;;;18.70;99.90;;;;;;5021011;28;20042;-57
2022/06/24 12:33:44;;;;;;;11.00;6.15;;;18.80;99.90;;;;;;5019342;28;20486;-58
2022/06/24 12:36:13;;;;;;;8.65;5.20;;;19.00;99.90;;;;;;5020518;28;20054;-58
2022/06/24 12:38:41;;;;;;;6.97;4.93;;;19.10;99.90;;;;;;5020172;28;20176;-58
2022/06/24 12:41:15;;;;;;;9.65;5.45;;;19.30;99.90;;;;;;5019769;28;20510;-58
2022/06/24 12:43:54;;;;;;;7.65;5.03;;;19.40;99.90;;;;;;5018822;28;20069;-58
2022/06/24 12:46:21;;;;;;;10.65;5.45;;;19.60;99.90;;;;;;5019037;28;21067;-58
2022/06/24 12:51:37;;;;;;;10.18;5.60;;;19.50;99.90;;;;;;5026912;28;20132;-58
2022/06/24 12:54:03;;;;;;;10.68;6.70;;;19.70;99.90;;;;;;5039392;28;20037;-58
2022/06/24 12:56:32;;;;;;;12.05;6.65;;;19.80;99.90;;;;;;5040213;28;20088;-58
2022/06/24 12:58:58;;;;;;;12.23;7.32;;;19.80;99.90;;;;;;5038600;28;20049;-58
2022/06/24 13:01:24;;;;;;;10.13;7.60;;;19.90;99.90;;;;;;5040425;28;20076;-58
2022/06/24 13:03:49;;;;;;;10.52;7.22;;;19.80;99.90;;;;;;5038938;28;20038;-58
2022/06/24 13:06:15;;;;;;;8.90;6.90;;;20.00;99.90;;;;;;5039895;28;20045;-57